sensor_id;sensor_type;location;lat;lon;timestamp;P1;durP1;ratioP1;P2;durP2;ratioP2
20725;SDS011;10524;48.132;8.518;2023-06-10T00:01:33;7.22;;;6.47;;
20725;SDS011;10524;48.132;8.518;2023-06-10T00:04:01;7.07;;;6.38;;
20725;SDS011;10524;48.132;8.518;2023-06-10T00:06:27;9.27;;;6.22;;
20725;SDS011;10524;48.132;8.518;2023-06-10T00:08:53;6.70;;;6.10;;
20725;SDS011;10524;48.132;8.518;2023-06-10T00:11:19;7.28;;;6.40;;
20725;SDS011;10524;48.132;8.518;2023-06-10T00:13:46;7.95;;;6.97;;
20725;SDS011;10524;48.132;8.518;2023-06-10T00:16:12;9.45;;;6.93;;
20725;SDS011;10524;48.132;8.518;2023-06-10T00:18:37;7.35;;;6.65;;
20725;SDS011;10524;48.132;8.518;2023-06-10T00:21:03;8.25;;;7.07;;
20725;SDS011;10524;48.132;8.518;2023-06-10T00:23:29;7.97;;;7.15;;
20725;SDS011;10524;48.132;8.518;2023-06-10T00:26:02;8.05;;;7.25;;
20725;SDS011;10524;48.132;8.518;2023-06-10T00:28:28;8.13;;;7.00;;
20725;SDS011;10524;48.132;8.518;2023-06-10T00:30:53;7.75;;;6.95;;
20725;SDS011;10524;48.132;8.518;2023-06-10T00:33:19;8.20;;;7.40;;
20725;SDS011;10524;48.132;8.518;2023-06-10T00:35:45;7.72;;;6.93;;
20725;SDS011;10524;48.132;8.518;2023-06-10T00:38:10;8.43;;;7.03;;
20725;SDS011;10524;48.132;8.518;2023-06-10T00:40:41;8.73;;;6.78;;
20725;SDS011;10524;48.132;8.518;2023-06-10T00:43:07;9.35;;;6.97;;
20725;SDS011;10524;48.132;8.518;2023-06-10T00:45:33;7.07;;;6.38;;
20725;SDS011;10524;48.132;8.518;2023-06-10T00:47:59;7.28;;;6.60;;
20725;SDS011;10524;48.132;8.518;2023-06-10T00:50:25;7.18;;;6.47;;
20725;SDS011;10524;48.132;8.518;2023-06-10T00:52:52;7.43;;;6.60;;
20725;SDS011;10524;48.132;8.518;2023-06-10T00:55:19;7.78;;;6.85;;
20725;SDS011;10524;48.132;8.518;2023-06-10T00:57:45;7.50;;;6.70;;
20725;SDS011;10524;48.132;8.518;2023-06-10T01:00:13;7.78;;;6.97;;
20725;SDS011;10524;48.132;8.518;2023-06-10T01:02:40;7.70;;;6.75;;
20725;SDS011;10524;48.132;8.518;2023-06-10T01:05:06;7.15;;;6.30;;
20725;SDS011;10524;48.132;8.518;2023-06-10T01:07:36;9.27;;;7.55;;
20725;SDS011;10524;48.132;8.518;2023-06-10T01:13:41;9.32;;;7.50;;
20725;SDS011;10524;48.132;8.518;2023-06-10T01:16:08;9.27;;;8.30;;
20725;SDS011;10524;48.132;8.518;2023-06-10T01:18:35;8.73;;;7.60;;
20725;SDS011;10524;48.132;8.518;2023-06-10T01:21:00;7.53;;;6.80;;
20725;SDS011;10524;48.132;8.518;2023-06-10T01:23:26;8.60;;;7.57;;
20725;SDS011;10524;48.132;8.518;2023-06-10T01:25:53;8.80;;;7.68;;
20725;SDS011;10524;48.132;8.518;2023-06-10T01:31:08;8.07;;;7.28;;
20725;SDS011;10524;48.132;8.518;2023-06-10T01:33:59;24.25;;;8.15;;
20725;SDS011;10524;48.132;8.518;2023-06-10T01:36:27;8.43;;;7.22;;
20725;SDS011;10524;48.132;8.518;2023-06-10T01:38:54;9.15;;;8.10;;
20725;SDS011;10524;48.132;8.518;2023-06-10T01:41:21;8.52;;;7.70;;
20725;SDS011;10524;48.132;8.518;2023-06-10T01:43:48;8.18;;;7.38;;
20725;SDS011;10524;48.132;8.518;2023-06-10T01:46:14;11.13;;;7.50;;
20725;SDS011;10524;48.132;8.518;2023-06-10T01:48:41;8.13;;;7.32;;
20725;SDS011;10524;48.132;8.518;2023-06-10T01:51:07;7.88;;;7.05;;
20725;SDS011;10524;48.132;8.518;2023-06-10T01:53:33;8.90;;;8.00;;
20725;SDS011;10524;48.132;8.518;2023-06-10T01:55:58;8.55;;;7.68;;
20725;SDS011;10524;48.132;8.518;2023-06-10T01:58:24;9.18;;;8.25;;
20725;SDS011;10524;48.132;8.518;2023-06-10T02:00:50;8.30;;;7.50;;
20725;SDS011;10524;48.132;8.518;2023-06-10T02:03:16;10.30;;;7.68;;
20725;SDS011;10524;48.132;8.518;2023-06-10T02:05:42;9.23;;;7.82;;
20725;SDS011;10524;48.132;8.518;2023-06-10T02:08:07;8.93;;;8.02;;
20725;SDS011;10524;48.132;8.518;2023-06-10T02:10:33;9.00;;;8.10;;
20725;SDS011;10524;48.132;8.518;2023-06-10T02:12:59;10.07;;;7.72;;
20725;SDS011;10524;48.132;8.518;2023-06-10T02:15:24;8.75;;;7.65;;
20725;SDS011;10524;48.132;8.518;2023-06-10T02:17:50;8.80;;;7.90;;
20725;SDS011;10524;48.132;8.518;2023-06-10T02:20:17;8.90;;;8.00;;
20725;SDS011;10524;48.132;8.518;2023-06-10T02:22:42;8.95;;;7.85;;
20725;SDS011;10524;48.132;8.518;2023-06-10T02:25:08;9.18;;;8.27;;
20725;SDS011;10524;48.132;8.518;2023-06-10T02:27:34;9.07;;;8.18;;
20725;SDS011;10524;48.132;8.518;2023-06-10T02:29:59;8.32;;;7.53;;
20725;SDS011;10524;48.132;8.518;2023-06-10T02:32:25;10.20;;;8.18;;
20725;SDS011;10524;48.132;8.518;2023-06-10T02:34:51;8.90;;;7.95;;
20725;SDS011;10524;48.132;8.518;2023-06-10T02:37:17;10.38;;;8.18;;
20725;SDS011;10524;48.132;8.518;2023-06-10T02:39:43;8.70;;;7.68;;
20725;SDS011;10524;48.132;8.518;2023-06-10T02:42:08;9.25;;;7.95;;
20725;SDS011;10524;48.132;8.518;2023-06-10T02:44:35;10.20;;;8.85;;
20725;SDS011;10524;48.132;8.518;2023-06-10T02:47:01;9.57;;;8.43;;
20725;SDS011;10524;48.132;8.518;2023-06-10T02:49:26;9.20;;;8.25;;
20725;SDS011;10524;48.132;8.518;2023-06-10T02:51:55;9.55;;;8.65;;
20725;SDS011;10524;48.132;8.518;2023-06-10T02:54:22;9.88;;;8.88;;
20725;SDS011;10524;48.132;8.518;2023-06-10T02:56:48;10.07;;;9.00;;
20725;SDS011;10524;48.132;8.518;2023-06-10T02:59:14;9.27;;;8.38;;
20725;SDS011;10524;48.132;8.518;2023-06-10T03:01:40;10.15;;;8.68;;
20725;SDS011;10524;48.132;8.518;2023-06-10T03:04:06;10.02;;;8.68;;
20725;SDS011;10524;48.132;8.518;2023-06-10T03:06:32;9.93;;;8.80;;
20725;SDS011;10524;48.132;8.518;2023-06-10T03:08:59;9.30;;;8.30;;
20725;SDS011;10524;48.132;8.518;2023-06-10T03:11:25;9.43;;;8.45;;
20725;SDS011;10524;48.132;8.518;2023-06-10T03:13:51;10.13;;;9.07;;
20725;SDS011;10524;48.132;8.518;2023-06-10T03:16:18;10.85;;;9.05;;
20725;SDS011;10524;48.132;8.518;2023-06-10T03:18:44;10.60;;;9.60;;
20725;SDS011;10524;48.132;8.518;2023-06-10T03:21:10;11.68;;;9.35;;
20725;SDS011;10524;48.132;8.518;2023-06-10T03:23:36;10.55;;;9.45;;
20725;SDS011;10524;48.132;8.518;2023-06-10T03:26:02;10.07;;;8.95;;
20725;SDS011;10524;48.132;8.518;2023-06-10T03:28:29;10.00;;;8.90;;
20725;SDS011;10524;48.132;8.518;2023-06-10T03:30:55;10.57;;;9.40;;
20725;SDS011;10524;48.132;8.518;2023-06-10T03:33:21;10.05;;;9.00;;
20725;SDS011;10524;48.132;8.518;2023-06-10T03:35:47;9.65;;;8.65;;
20725;SDS011;10524;48.132;8.518;2023-06-10T03:38:12;10.30;;;9.18;;
20725;SDS011;10524;48.132;8.518;2023-06-10T03:40:38;13.00;;;9.95;;
20725;SDS011;10524;48.132;8.518;2023-06-10T03:43:04;10.70;;;9.60;;
20725;SDS011;10524;48.132;8.518;2023-06-10T03:45:30;10.07;;;9.00;;
20725;SDS011;10524;48.132;8.518;2023-06-10T03:47:57;9.75;;;8.75;;
20725;SDS011;10524;48.132;8.518;2023-06-10T03:50:23;9.40;;;8.45;;
20725;SDS011;10524;48.132;8.518;2023-06-10T03:52:49;9.95;;;8.52;;
20725;SDS011;10524;48.132;8.518;2023-06-10T03:55:15;8.90;;;8.10;;
20725;SDS011;10524;48.132;8.518;2023-06-10T03:57:42;8.75;;;7.78;;
20725;SDS011;10524;48.132;8.518;2023-06-10T04:00:08;9.77;;;8.77;;
20725;SDS011;10524;48.132;8.518;2023-06-10T04:02:37;9.15;;;8.25;;
20725;SDS011;10524;48.132;8.518;2023-06-10T04:05:10;9.48;;;7.13;;
20725;SDS011;10524;48.132;8.518;2023-06-10T04:07:39;7.70;;;7.00;;
20725;SDS011;10524;48.132;8.518;2023-06-10T04:10:07;8.65;;;7.32;;
20725;SDS011;10524;48.132;8.518;2023-06-10T04:12:33;7.38;;;6.68;;
20725;SDS011;10524;48.132;8.518;2023-06-10T04:14:59;6.55;;;5.93;;
20725;SDS011;10524;48.132;8.518;2023-06-10T04:17:25;10.00;;;6.85;;
20725;SDS011;10524;48.132;8.518;2023-06-10T04:19:51;6.90;;;6.13;;
20725;SDS011;10524;48.132;8.518;2023-06-10T04:22:17;6.38;;;5.78;;
20725;SDS011;10524;48.132;8.518;2023-06-10T04:24:43;6.00;;;5.50;;
20725;SDS011;10524;48.132;8.518;2023-06-10T04:27:09;6.68;;;5.68;;
20725;SDS011;10524;48.132;8.518;2023-06-10T04:29:35;6.53;;;5.65;;
20725;SDS011;10524;48.132;8.518;2023-06-10T04:32:01;5.55;;;5.05;;
20725;SDS011;10524;48.132;8.518;2023-06-10T04:34:27;5.97;;;5.47;;
20725;SDS011;10524;48.132;8.518;2023-06-10T04:36:53;5.50;;;5.00;;
20725;SDS011;10524;48.132;8.518;2023-06-10T04:39:18;6.10;;;5.60;;
20725;SDS011;10524;48.132;8.518;2023-06-10T04:41:45;6.15;;;5.55;;
20725;SDS011;10524;48.132;8.518;2023-06-10T04:44:11;5.40;;;4.90;;
20725;SDS011;10524;48.132;8.518;2023-06-10T04:46:37;5.38;;;4.97;;
20725;SDS011;10524;48.132;8.518;2023-06-10T04:49:03;5.75;;;5.18;;
20725;SDS011;10524;48.132;8.518;2023-06-10T04:51:29;7.53;;;5.40;;
20725;SDS011;10524;48.132;8.518;2023-06-10T04:53:55;5.65;;;5.15;;
20725;SDS011;10524;48.132;8.518;2023-06-10T04:56:21;5.38;;;4.93;;
20725;SDS011;10524;48.132;8.518;2023-06-10T04:58:47;8.43;;;5.53;;
20725;SDS011;10524;48.132;8.518;2023-06-10T05:01:12;5.28;;;4.88;;
20725;SDS011;10524;48.132;8.518;2023-06-10T05:03:38;5.50;;;5.00;;
20725;SDS011;10524;48.132;8.518;2023-06-10T05:06:04;5.10;;;4.60;;
20725;SDS011;10524;48.132;8.518;2023-06-10T05:08:29;5.28;;;4.78;;
20725;SDS011;10524;48.132;8.518;2023-06-10T05:10:55;5.70;;;5.25;;
20725;SDS011;10524;48.132;8.518;2023-06-10T05:13:21;6.45;;;5.82;;
20725;SDS011;10524;48.132;8.518;2023-06-10T05:15:46;5.22;;;4.80;;
20725;SDS011;10524;48.132;8.518;2023-06-10T05:18:13;5.80;;;5.30;;
20725;SDS011;10524;48.132;8.518;2023-06-10T05:20:39;6.38;;;4.93;;
20725;SDS011;10524;48.132;8.518;2023-06-10T05:23:04;6.95;;;5.40;;
20725;SDS011;10524;48.132;8.518;2023-06-10T05:25:30;6.63;;;5.57;;
20725;SDS011;10524;48.132;8.518;2023-06-10T05:27:57;7.10;;;5.30;;
20725;SDS011;10524;48.132;8.518;2023-06-10T05:30:23;5.63;;;5.13;;
20725;SDS011;10524;48.132;8.518;2023-06-10T05:32:50;7.90;;;5.35;;
20725;SDS011;10524;48.132;8.518;2023-06-10T05:35:16;5.75;;;5.18;;
20725;SDS011;10524;48.132;8.518;2023-06-10T05:37:42;6.93;;;5.68;;
20725;SDS011;10524;48.132;8.518;2023-06-10T05:40:09;5.53;;;5.03;;
20725;SDS011;10524;48.132;8.518;2023-06-10T05:42:35;4.70;;;4.30;;
20725;SDS011;10524;48.132;8.518;2023-06-10T05:45:01;5.65;;;5.13;;
20725;SDS011;10524;48.132;8.518;2023-06-10T05:47:27;6.90;;;5.30;;
20725;SDS011;10524;48.132;8.518;2023-06-10T05:49:53;5.45;;;4.95;;
20725;SDS011;10524;48.132;8.518;2023-06-10T05:52:18;4.45;;;4.10;;
20725;SDS011;10524;48.132;8.518;2023-06-10T05:54:44;4.85;;;4.43;;
20725;SDS011;10524;48.132;8.518;2023-06-10T05:57:10;5.80;;;5.30;;
20725;SDS011;10524;48.132;8.518;2023-06-10T05:59:36;6.07;;;4.85;;
20725;SDS011;10524;48.132;8.518;2023-06-10T06:02:01;5.88;;;5.35;;
20725;SDS011;10524;48.132;8.518;2023-06-10T06:04:27;4.95;;;4.55;;
20725;SDS011;10524;48.132;8.518;2023-06-10T06:06:53;4.50;;;4.10;;
20725;SDS011;10524;48.132;8.518;2023-06-10T06:09:18;6.65;;;5.20;;
20725;SDS011;10524;48.132;8.518;2023-06-10T06:11:44;7.28;;;5.18;;
20725;SDS011;10524;48.132;8.518;2023-06-10T06:14:10;6.00;;;4.90;;
20725;SDS011;10524;48.132;8.518;2023-06-10T06:16:35;6.60;;;5.25;;
20725;SDS011;10524;48.132;8.518;2023-06-10T06:19:01;6.05;;;5.47;;
20725;SDS011;10524;48.132;8.518;2023-06-10T06:21:26;5.55;;;5.05;;
20725;SDS011;10524;48.132;8.518;2023-06-10T06:23:52;6.07;;;5.50;;
20725;SDS011;10524;48.132;8.518;2023-06-10T06:26:18;6.35;;;5.18;;
20725;SDS011;10524;48.132;8.518;2023-06-10T06:28:43;6.25;;;5.38;;
20725;SDS011;10524;48.132;8.518;2023-06-10T06:31:09;6.63;;;5.22;;
20725;SDS011;10524;48.132;8.518;2023-06-10T06:33:35;6.53;;;5.93;;
20725;SDS011;10524;48.132;8.518;2023-06-10T06:36:00;6.30;;;5.70;;
20725;SDS011;10524;48.132;8.518;2023-06-10T06:38:26;7.03;;;5.50;;
20725;SDS011;10524;48.132;8.518;2023-06-10T06:40:52;6.47;;;5.25;;
20725;SDS011;10524;48.132;8.518;2023-06-10T06:43:17;7.78;;;5.80;;
20725;SDS011;10524;48.132;8.518;2023-06-10T06:45:43;6.05;;;5.50;;
20725;SDS011;10524;48.132;8.518;2023-06-10T06:48:10;6.75;;;5.80;;
20725;SDS011;10524;48.132;8.518;2023-06-10T06:50:37;7.45;;;5.40;;
20725;SDS011;10524;48.132;8.518;2023-06-10T06:53:03;5.95;;;5.45;;
20725;SDS011;10524;48.132;8.518;2023-06-10T06:55:29;6.78;;;5.80;;
20725;SDS011;10524;48.132;8.518;2023-06-10T06:57:55;5.97;;;5.38;;
20725;SDS011;10524;48.132;8.518;2023-06-10T07:00:21;7.15;;;5.35;;
20725;SDS011;10524;48.132;8.518;2023-06-10T07:02:47;5.88;;;5.28;;
20725;SDS011;10524;48.132;8.518;2023-06-10T07:05:13;7.03;;;5.18;;
20725;SDS011;10524;48.132;8.518;2023-06-10T07:07:38;5.50;;;5.00;;
20725;SDS011;10524;48.132;8.518;2023-06-10T07:10:04;6.28;;;5.45;;
20725;SDS011;10524;48.132;8.518;2023-06-10T07:12:30;5.68;;;5.18;;
20725;SDS011;10524;48.132;8.518;2023-06-10T07:14:56;5.40;;;4.90;;
20725;SDS011;10524;48.132;8.518;2023-06-10T07:17:21;5.70;;;5.15;;
20725;SDS011;10524;48.132;8.518;2023-06-10T07:19:47;7.78;;;4.80;;
20725;SDS011;10524;48.132;8.518;2023-06-10T07:22:13;5.20;;;4.68;;
20725;SDS011;10524;48.132;8.518;2023-06-10T07:24:39;5.38;;;4.70;;
20725;SDS011;10524;48.132;8.518;2023-06-10T07:27:05;4.88;;;4.40;;
20725;SDS011;10524;48.132;8.518;2023-06-10T07:29:32;4.50;;;4.07;;
20725;SDS011;10524;48.132;8.518;2023-06-10T07:31:57;4.40;;;4.00;;
20725;SDS011;10524;48.132;8.518;2023-06-10T07:34:23;5.13;;;4.20;;
20725;SDS011;10524;48.132;8.518;2023-06-10T07:36:49;4.93;;;4.47;;
20725;SDS011;10524;48.132;8.518;2023-06-10T07:39:15;6.13;;;4.63;;
20725;SDS011;10524;48.132;8.518;2023-06-10T07:41:40;5.15;;;4.65;;
20725;SDS011;10524;48.132;8.518;2023-06-10T07:44:06;5.25;;;4.75;;
20725;SDS011;10524;48.132;8.518;2023-06-10T07:46:31;6.88;;;4.35;;
20725;SDS011;10524;48.132;8.518;2023-06-10T07:48:57;5.45;;;4.50;;
20725;SDS011;10524;48.132;8.518;2023-06-10T07:51:23;6.43;;;4.72;;
20725;SDS011;10524;48.132;8.518;2023-06-10T07:53:49;5.13;;;4.63;;
20725;SDS011;10524;48.132;8.518;2023-06-10T07:56:15;5.25;;;4.55;;
20725;SDS011;10524;48.132;8.518;2023-06-10T07:58:40;8.43;;;4.63;;
20725;SDS011;10524;48.132;8.518;2023-06-10T08:01:06;5.63;;;4.88;;
20725;SDS011;10524;48.132;8.518;2023-06-10T08:03:32;6.00;;;4.95;;
20725;SDS011;10524;48.132;8.518;2023-06-10T08:05:58;5.75;;;4.50;;
20725;SDS011;10524;48.132;8.518;2023-06-10T08:08:24;5.35;;;4.70;;
20725;SDS011;10524;48.132;8.518;2023-06-10T08:10:49;6.13;;;5.53;;
20725;SDS011;10524;48.132;8.518;2023-06-10T08:13:15;5.45;;;5.00;;
20725;SDS011;10524;48.132;8.518;2023-06-10T08:15:40;5.22;;;4.82;;
20725;SDS011;10524;48.132;8.518;2023-06-10T08:18:06;6.05;;;5.45;;
20725;SDS011;10524;48.132;8.518;2023-06-10T08:20:32;5.60;;;4.97;;
20725;SDS011;10524;48.132;8.518;2023-06-10T08:22:57;5.93;;;4.85;;
20725;SDS011;10524;48.132;8.518;2023-06-10T08:25:23;5.40;;;4.78;;
20725;SDS011;10524;48.132;8.518;2023-06-10T08:27:49;6.32;;;4.82;;
20725;SDS011;10524;48.132;8.518;2023-06-10T08:30:15;5.55;;;5.10;;
20725;SDS011;10524;48.132;8.518;2023-06-10T08:32:41;5.82;;;5.00;;
20725;SDS011;10524;48.132;8.518;2023-06-10T08:35:07;7.88;;;4.88;;
20725;SDS011;10524;48.132;8.518;2023-06-10T08:37:33;5.97;;;4.88;;
20725;SDS011;10524;48.132;8.518;2023-06-10T08:39:58;5.30;;;4.65;;
20725;SDS011;10524;48.132;8.518;2023-06-10T08:42:26;6.13;;;4.80;;
20725;SDS011;10524;48.132;8.518;2023-06-10T08:44:57;5.35;;;4.68;;
20725;SDS011;10524;48.132;8.518;2023-06-10T08:47:24;5.38;;;4.88;;
20725;SDS011;10524;48.132;8.518;2023-06-10T08:49:50;6.30;;;4.70;;
20725;SDS011;10524;48.132;8.518;2023-06-10T08:52:19;5.18;;;4.78;;
20725;SDS011;10524;48.132;8.518;2023-06-10T08:54:49;5.05;;;4.65;;
20725;SDS011;10524;48.132;8.518;2023-06-10T08:57:21;5.72;;;5.10;;
20725;SDS011;10524;48.132;8.518;2023-06-10T08:59:48;7.65;;;5.20;;
20725;SDS011;10524;48.132;8.518;2023-06-10T09:02:14;5.28;;;4.60;;
20725;SDS011;10524;48.132;8.518;2023-06-10T09:04:43;5.30;;;4.70;;
20725;SDS011;10524;48.132;8.518;2023-06-10T09:07:11;5.50;;;4.82;;
20725;SDS011;10524;48.132;8.518;2023-06-10T09:09:39;5.50;;;4.90;;
20725;SDS011;10524;48.132;8.518;2023-06-10T09:12:07;5.25;;;4.75;;
20725;SDS011;10524;48.132;8.518;2023-06-10T09:14:33;5.43;;;4.90;;
20725;SDS011;10524;48.132;8.518;2023-06-10T09:16:58;8.85;;;5.00;;
20725;SDS011;10524;48.132;8.518;2023-06-10T09:19:27;5.68;;;5.10;;
20725;SDS011;10524;48.132;8.518;2023-06-10T09:21:54;5.18;;;4.68;;
20725;SDS011;10524;48.132;8.518;2023-06-10T09:24:23;6.45;;;5.20;;
20725;SDS011;10524;48.132;8.518;2023-06-10T09:26:49;7.13;;;5.20;;
20725;SDS011;10524;48.132;8.518;2023-06-10T09:29:16;5.38;;;4.85;;
20725;SDS011;10524;48.132;8.518;2023-06-10T09:31:42;5.22;;;4.72;;
20725;SDS011;10524;48.132;8.518;2023-06-10T09:34:13;7.05;;;5.28;;
20725;SDS011;10524;48.132;8.518;2023-06-10T09:36:41;5.43;;;4.55;;
20725;SDS011;10524;48.132;8.518;2023-06-10T09:39:15;6.85;;;5.07;;
20725;SDS011;10524;48.132;8.518;2023-06-10T09:41:44;8.05;;;5.22;;
20725;SDS011;10524;48.132;8.518;2023-06-10T09:44:17;5.50;;;5.10;;
20725;SDS011;10524;48.132;8.518;2023-06-10T09:46:45;6.95;;;5.50;;
20725;SDS011;10524;48.132;8.518;2023-06-10T09:49:12;5.90;;;5.30;;
20725;SDS011;10524;48.132;8.518;2023-06-10T09:51:37;5.95;;;5.35;;
20725;SDS011;10524;48.132;8.518;2023-06-10T09:54:13;6.18;;;4.82;;
20725;SDS011;10524;48.132;8.518;2023-06-10T09:56:39;5.40;;;4.90;;
20725;SDS011;10524;48.132;8.518;2023-06-10T09:59:07;7.00;;;4.78;;
20725;SDS011;10524;48.132;8.518;2023-06-10T10:01:33;4.95;;;4.45;;
20725;SDS011;10524;48.132;8.518;2023-06-10T10:03:59;5.28;;;4.78;;
20725;SDS011;10524;48.132;8.518;2023-06-10T10:06:26;5.10;;;4.70;;
20725;SDS011;10524;48.132;8.518;2023-06-10T10:08:52;5.53;;;4.72;;
20725;SDS011;10524;48.132;8.518;2023-06-10T10:11:18;6.25;;;4.88;;
20725;SDS011;10524;48.132;8.518;2023-06-10T10:13:51;5.72;;;5.00;;
20725;SDS011;10524;48.132;8.518;2023-06-10T10:16:21;5.53;;;4.85;;
20725;SDS011;10524;48.132;8.518;2023-06-10T10:18:54;5.45;;;4.97;;
20725;SDS011;10524;48.132;8.518;2023-06-10T10:21:22;5.57;;;5.07;;
20725;SDS011;10524;48.132;8.518;2023-06-10T10:23:52;5.90;;;5.30;;
20725;SDS011;10524;48.132;8.518;2023-06-10T10:26:26;5.70;;;5.10;;
20725;SDS011;10524;48.132;8.518;2023-06-10T10:29:01;6.20;;;5.60;;
20725;SDS011;10524;48.132;8.518;2023-06-10T10:31:44;5.80;;;5.30;;
20725;SDS011;10524;48.132;8.518;2023-06-10T10:34:12;5.85;;;5.22;;
20725;SDS011;10524;48.132;8.518;2023-06-10T10:36:42;5.50;;;5.03;;
20725;SDS011;10524;48.132;8.518;2023-06-10T10:39:08;5.15;;;4.70;;
20725;SDS011;10524;48.132;8.518;2023-06-10T10:41:34;5.18;;;4.28;;
20725;SDS011;10524;48.132;8.518;2023-06-10T10:44:03;5.07;;;4.60;;
20725;SDS011;10524;48.132;8.518;2023-06-10T10:46:41;6.00;;;4.97;;
20725;SDS011;10524;48.132;8.518;2023-06-10T10:49:14;5.90;;;5.23;;
20725;SDS011;10524;48.132;8.518;2023-06-10T10:51:56;5.60;;;5.10;;
20725;SDS011;10524;48.132;8.518;2023-06-10T10:54:29;8.40;;;5.75;;
20725;SDS011;10524;48.132;8.518;2023-06-10T10:57:09;6.95;;;6.35;;
20725;SDS011;10524;48.132;8.518;2023-06-10T10:59:44;6.07;;;5.57;;
20725;SDS011;10524;48.132;8.518;2023-06-10T11:02:33;7.03;;;5.78;;
20725;SDS011;10524;48.132;8.518;2023-06-10T11:05:05;6.03;;;5.32;;
20725;SDS011;10524;48.132;8.518;2023-06-10T11:07:32;6.38;;;5.78;;
20725;SDS011;10524;48.132;8.518;2023-06-10T11:15:11;6.95;;;5.32;;
20725;SDS011;10524;48.132;8.518;2023-06-10T11:17:47;5.60;;;5.10;;
20725;SDS011;10524;48.132;8.518;2023-06-10T11:23:24;5.35;;;4.85;;
20725;SDS011;10524;48.132;8.518;2023-06-10T11:28:38;5.00;;;4.60;;
20725;SDS011;10524;48.132;8.518;2023-06-10T11:31:27;5.07;;;4.68;;
20725;SDS011;10524;48.132;8.518;2023-06-10T11:33:58;5.45;;;4.80;;
20725;SDS011;10524;48.132;8.518;2023-06-10T11:36:27;5.63;;;5.13;;
20725;SDS011;10524;48.132;8.518;2023-06-10T11:38:59;5.00;;;4.43;;
20725;SDS011;10524;48.132;8.518;2023-06-10T11:41:27;5.68;;;4.68;;
20725;SDS011;10524;48.132;8.518;2023-06-10T11:43:54;5.38;;;4.82;;
20725;SDS011;10524;48.132;8.518;2023-06-10T11:46:23;6.03;;;5.43;;
20725;SDS011;10524;48.132;8.518;2023-06-10T11:48:52;5.50;;;4.90;;
20725;SDS011;10524;48.132;8.518;2023-06-10T11:51:18;4.95;;;4.55;;
20725;SDS011;10524;48.132;8.518;2023-06-10T11:53:53;5.05;;;4.55;;
20725;SDS011;10524;48.132;8.518;2023-06-10T11:56:22;4.25;;;3.83;;
20725;SDS011;10524;48.132;8.518;2023-06-10T11:58:57;4.00;;;3.70;;
20725;SDS011;10524;48.132;8.518;2023-06-10T12:01:29;4.03;;;3.60;;
20725;SDS011;10524;48.132;8.518;2023-06-10T12:04:08;3.58;;;3.28;;
20725;SDS011;10524;48.132;8.518;2023-06-10T12:06:44;4.00;;;3.60;;
20725;SDS011;10524;48.132;8.518;2023-06-10T12:09:24;3.78;;;3.45;;
20725;SDS011;10524;48.132;8.518;2023-06-10T12:11:55;3.72;;;3.42;;
20725;SDS011;10524;48.132;8.518;2023-06-10T12:17:15;3.53;;;3.22;;
20725;SDS011;10524;48.132;8.518;2023-06-10T12:19:41;5.53;;;3.28;;
20725;SDS011;10524;48.132;8.518;2023-06-10T12:22:06;3.50;;;2.90;;
20725;SDS011;10524;48.132;8.518;2023-06-10T12:24:32;2.97;;;2.72;;
20725;SDS011;10524;48.132;8.518;2023-06-10T12:26:58;3.50;;;3.20;;
20725;SDS011;10524;48.132;8.518;2023-06-10T12:29:24;3.40;;;3.00;;
20725;SDS011;10524;48.132;8.518;2023-06-10T12:32:00;4.40;;;3.20;;
20725;SDS011;10524;48.132;8.518;2023-06-10T12:34:46;3.42;;;3.10;;
20725;SDS011;10524;48.132;8.518;2023-06-10T12:37:12;3.45;;;2.63;;
20725;SDS011;10524;48.132;8.518;2023-06-10T12:39:41;3.25;;;2.50;;
20725;SDS011;10524;48.132;8.518;2023-06-10T12:42:12;3.97;;;3.00;;
20725;SDS011;10524;48.132;8.518;2023-06-10T12:44:40;3.72;;;2.83;;
20725;SDS011;10524;48.132;8.518;2023-06-10T12:47:07;2.97;;;2.53;;
20725;SDS011;10524;48.132;8.518;2023-06-10T12:49:34;4.53;;;2.90;;
20725;SDS011;10524;48.132;8.518;2023-06-10T12:52:01;4.25;;;2.85;;
20725;SDS011;10524;48.132;8.518;2023-06-10T12:54:26;3.75;;;2.70;;
20725;SDS011;10524;48.132;8.518;2023-06-10T12:56:52;2.80;;;2.60;;
20725;SDS011;10524;48.132;8.518;2023-06-10T12:59:18;3.30;;;2.70;;
20725;SDS011;10524;48.132;8.518;2023-06-10T13:01:44;3.10;;;2.80;;
20725;SDS011;10524;48.132;8.518;2023-06-10T13:04:15;3.58;;;2.70;;
20725;SDS011;10524;48.132;8.518;2023-06-10T13:06:41;3.30;;;3.00;;
20725;SDS011;10524;48.132;8.518;2023-06-10T13:09:07;2.65;;;2.45;;
20725;SDS011;10524;48.132;8.518;2023-06-10T13:11:33;2.88;;;2.53;;
20725;SDS011;10524;48.132;8.518;2023-06-10T13:13:58;2.63;;;2.42;;
20725;SDS011;10524;48.132;8.518;2023-06-10T13:16:24;2.95;;;2.53;;
20725;SDS011;10524;48.132;8.518;2023-06-10T13:18:50;2.40;;;2.20;;
20725;SDS011;10524;48.132;8.518;2023-06-10T13:21:17;2.60;;;2.40;;
20725;SDS011;10524;48.132;8.518;2023-06-10T13:23:44;2.72;;;2.30;;
20725;SDS011;10524;48.132;8.518;2023-06-10T13:26:12;2.50;;;2.30;;
20725;SDS011;10524;48.132;8.518;2023-06-10T13:28:38;2.88;;;2.58;;
20725;SDS011;10524;48.132;8.518;2023-06-10T13:31:04;2.78;;;2.50;;
20725;SDS011;10524;48.132;8.518;2023-06-10T13:33:29;2.75;;;2.55;;
20725;SDS011;10524;48.132;8.518;2023-06-10T13:35:55;2.60;;;2.40;;
20725;SDS011;10524;48.132;8.518;2023-06-10T13:38:20;3.28;;;2.30;;
20725;SDS011;10524;48.132;8.518;2023-06-10T13:40:46;2.50;;;2.30;;
20725;SDS011;10524;48.132;8.518;2023-06-10T13:43:12;4.63;;;2.88;;
20725;SDS011;10524;48.132;8.518;2023-06-10T13:45:38;2.55;;;2.35;;
20725;SDS011;10524;48.132;8.518;2023-06-10T13:48:04;3.13;;;2.58;;
20725;SDS011;10524;48.132;8.518;2023-06-10T13:50:30;2.97;;;2.55;;
20725;SDS011;10524;48.132;8.518;2023-06-10T13:52:56;2.95;;;2.38;;
20725;SDS011;10524;48.132;8.518;2023-06-10T13:55:22;3.65;;;2.60;;
20725;SDS011;10524;48.132;8.518;2023-06-10T13:57:49;3.65;;;2.30;;
20725;SDS011;10524;48.132;8.518;2023-06-10T14:00:16;3.45;;;2.40;;
20725;SDS011;10524;48.132;8.518;2023-06-10T14:02:41;2.97;;;2.33;;
20725;SDS011;10524;48.132;8.518;2023-06-10T14:05:07;2.58;;;2.35;;
20725;SDS011;10524;48.132;8.518;2023-06-10T14:07:33;2.53;;;2.33;;
20725;SDS011;10524;48.132;8.518;2023-06-10T14:09:59;2.50;;;2.28;;
20725;SDS011;10524;48.132;8.518;2023-06-10T14:12:25;2.80;;;2.60;;
20725;SDS011;10524;48.132;8.518;2023-06-10T14:14:50;2.85;;;2.58;;
20725;SDS011;10524;48.132;8.518;2023-06-10T14:17:16;3.40;;;2.50;;
20725;SDS011;10524;48.132;8.518;2023-06-10T14:19:42;2.65;;;2.45;;
20725;SDS011;10524;48.132;8.518;2023-06-10T14:22:07;3.67;;;2.90;;
20725;SDS011;10524;48.132;8.518;2023-06-10T14:24:33;3.28;;;2.80;;
20725;SDS011;10524;48.132;8.518;2023-06-10T14:27:01;3.63;;;2.75;;
20725;SDS011;10524;48.132;8.518;2023-06-10T14:29:26;3.00;;;2.70;;
20725;SDS011;10524;48.132;8.518;2023-06-10T14:31:54;4.60;;;2.97;;
20725;SDS011;10524;48.132;8.518;2023-06-10T14:34:20;2.75;;;2.55;;
20725;SDS011;10524;48.132;8.518;2023-06-10T14:36:45;3.05;;;2.58;;
20725;SDS011;10524;48.132;8.518;2023-06-10T14:39:11;3.13;;;2.83;;
20725;SDS011;10524;48.132;8.518;2023-06-10T14:41:37;5.13;;;3.03;;
20725;SDS011;10524;48.132;8.518;2023-06-10T14:44:02;5.03;;;3.28;;
20725;SDS011;10524;48.132;8.518;2023-06-10T14:46:28;6.18;;;3.95;;
20725;SDS011;10524;48.132;8.518;2023-06-10T14:48:54;4.53;;;3.72;;
20725;SDS011;10524;48.132;8.518;2023-06-10T14:51:19;4.63;;;3.80;;
20725;SDS011;10524;48.132;8.518;2023-06-10T14:53:46;4.25;;;3.85;;
20725;SDS011;10524;48.132;8.518;2023-06-10T14:56:11;5.32;;;3.33;;
20725;SDS011;10524;48.132;8.518;2023-06-10T14:58:37;3.58;;;3.20;;
20725;SDS011;10524;48.132;8.518;2023-06-10T15:01:03;3.55;;;3.25;;
20725;SDS011;10524;48.132;8.518;2023-06-10T15:03:29;4.43;;;3.30;;
20725;SDS011;10524;48.132;8.518;2023-06-10T15:05:55;3.70;;;3.05;;
20725;SDS011;10524;48.132;8.518;2023-06-10T15:08:20;3.22;;;2.90;;